Time;durP1;ratioP1;P1;durP2;ratioP2;P2;SDS_P1;SDS_P2;PMS_P1;PMS_P2;Temp;Humidity;BMP_temperature;BMP_pressure;BME280_temperature;BME280_humidity;BME280_pressure;Samples;Min_cycle;Max_cycle;Signal;HPM_P1;HPM_P2
2022/04/27 00:01:52;;;;;;;0.00;0.00;;;;;;;;;;5071548;28;20703;-62
2022/04/27 00:04:17;;;;;;;0.32;0.32;;;;;;;;;;5049149;28;20044;-62
2022/04/27 00:06:43;;;;;;;0.00;0.00;;;;;;;;;;5072712;28;20113;-62
2022/04/27 00:09:08;;;;;;;0.00;0.00;;;;;;;;;;5071514;28;20059;-62
2022/04/27 00:11:33;;;;;;;0.00;0.00;;;;;;;;;;5071584;28;20073;-62
2022/04/27 00:14:00;;;;;;;0.00;0.00;;;;;;;;;;5070412;28;20025;-62
2022/04/27 00:16:26;;;;;;;0.00;0.00;;;;;;;;;;5071261;28;20035;-62
2022/04/27 00:18:51;;;;;;;0.52;0.52;;;;;;;;;;5071554;28;20020;-62
2022/04/27 00:21:17;;;;;;;0.00;0.00;;;;;;;;;;5071022;28;20017;-62
2022/04/27 00:23:43;;;;;;;0.00;0.00;;;;;;;;;;5071458;28;20027;-62
2022/04/27 00:26:09;;;;;;;0.00;0.00;;;;;;;;;;5071120;28;20028;-62
2022/04/27 00:28:34;;;;;;;0.22;0.22;;;;;;;;;;5069362;28;20048;-62
2022/04/27 00:31:00;;;;;;;0.00;0.00;;;;;;;;;;5070932;28;20054;-62
2022/04/27 00:33:25;;;;;;;0.00;0.00;;;;;;;;;;5069842;28;20499;-62
2022/04/27 00:35:51;;;;;;;0.15;0.15;;;;;;;;;;5071273;28;20034;-62
2022/04/27 00:38:16;;;;;;;0.57;0.57;;;;;;;;;;5071492;28;20050;-62
2022/04/27 00:40:41;;;;;;;0.00;0.00;;;;;;;;;;5070140;28;20016;-62
2022/04/27 00:43:06;;;;;;;0.00;0.00;;;;;;;;;;5070769;28;20019;-62
2022/04/27 00:45:32;;;;;;;0.00;0.00;;;;;;;;;;5070835;28;20123;-62
2022/04/27 00:47:57;;;;;;;0.00;0.00;;;;;;;;;;5070511;28;20099;-62
2022/04/27 00:50:22;;;;;;;0.00;0.00;;;;;;;;;;5071288;28;20028;-62
2022/04/27 00:52:48;;;;;;;0.00;0.00;;;;;;;;;;5071067;28;20027;-62
2022/04/27 00:55:13;;;;;;;0.00;0.00;;;;;;;;;;5070421;28;20028;-62
2022/04/27 00:57:39;;;;;;;0.00;0.00;;;;;;;;;;5070050;28;20024;-62
2022/04/27 01:00:05;;;;;;;1.15;1.15;;;;;;;;;;5070336;28;20020;-62
2022/04/27 01:02:30;;;;;;;0.10;0.10;;;;;;;;;;5070578;28;20066;-62
2022/04/27 01:04:56;;;;;;;0.13;0.13;;;;;;;;;;5070415;28;20012;-62
2022/04/27 01:07:22;;;;;;;0.55;0.20;;;;;;;;;;5069885;28;20032;-62
2022/04/27 01:09:47;;;;;;;0.00;0.00;;;;;;;;;;5070698;28;20035;-62
2022/04/27 01:12:12;;;;;;;0.00;0.00;;;;;;;;;;5070301;28;20023;-61
2022/04/27 01:14:44;;;;;;;0.00;0.00;;;;;;;;;;5070544;28;20066;-62
2022/04/27 01:17:10;;;;;;;0.00;0.00;;;;;;;;;;5070409;28;20039;-61
2022/04/27 01:19:35;;;;;;;0.10;0.10;;;;;;;;;;5070305;28;20024;-62
2022/04/27 01:22:01;;;;;;;0.08;0.08;;;;;;;;;;5070007;28;20040;-62
2022/04/27 01:24:27;;;;;;;0.38;0.38;;;;;;;;;;5068734;28;20023;-62
2022/04/27 01:26:52;;;;;;;0.00;0.00;;;;;;;;;;5069915;28;20127;-62
2022/04/27 01:29:18;;;;;;;0.10;0.10;;;;;;;;;;5070144;28;20596;-62
2022/04/27 01:31:44;;;;;;;1.35;1.35;;;;;;;;;;5069924;28;20050;-62
2022/04/27 01:34:09;;;;;;;0.73;0.73;;;;;;;;;;5069887;28;20021;-62
2022/04/27 01:36:34;;;;;;;0.70;0.63;;;;;;;;;;5069182;28;20030;-62
2022/04/27 01:38:59;;;;;;;0.10;0.10;;;;;;;;;;5069343;28;20452;-61
2022/04/27 01:41:25;;;;;;;0.00;0.00;;;;;;;;;;5070188;28;20021;-62
2022/04/27 01:43:50;;;;;;;0.00;0.00;;;;;;;;;;5069787;28;20024;-62
2022/04/27 01:46:15;;;;;;;0.00;0.00;;;;;;;;;;5069249;28;20019;-62
2022/04/27 01:48:40;;;;;;;0.00;0.00;;;;;;;;;;5069899;28;20031;-61
2022/04/27 01:51:06;;;;;;;0.30;0.30;;;;;;;;;;5068266;28;20024;-63
2022/04/27 01:56:15;;;;;;;2.38;2.28;;;;;;;;;;5069519;28;20035;-62
2022/04/27 01:58:41;;;;;;;0.00;0.00;;;;;;;;;;5069512;28;20377;-62
2022/04/27 02:01:10;;;;;;;0.00;0.00;;;;;;;;;;5047933;28;20112;-62
2022/04/27 02:03:36;;;;;;;0.00;0.00;;;;;;;;;;5069498;28;20043;-62
2022/04/27 02:06:01;;;;;;;0.00;0.00;;;;;;;;;;5069072;28;20024;-62
2022/04/27 02:08:26;;;;;;;0.35;0.35;;;;;;;;;;5069680;28;20020;-62
2022/04/27 02:10:51;;;;;;;0.10;0.10;;;;;;;;;;5069215;28;20021;-62
2022/04/27 02:13:17;;;;;;;0.00;0.00;;;;;;;;;;5068954;28;20796;-62
2022/04/27 02:15:43;;;;;;;0.38;0.38;;;;;;;;;;5069277;28;20029;-62
2022/04/27 02:18:08;;;;;;;0.65;0.65;;;;;;;;;;5069171;28;20035;-63
2022/04/27 02:20:34;;;;;;;0.82;0.82;;;;;;;;;;5069102;28;20098;-63
2022/04/27 02:22:59;;;;;;;0.00;0.00;;;;;;;;;;5067341;28;20028;-62
2022/04/27 02:25:24;;;;;;;0.00;0.00;;;;;;;;;;5069018;28;20389;-62
2022/04/27 02:27:50;;;;;;;0.00;0.00;;;;;;;;;;5069348;28;20049;-62
2022/04/27 02:30:15;;;;;;;2.08;2.08;;;;;;;;;;5068481;28;20025;-62
2022/04/27 02:32:40;;;;;;;0.00;0.00;;;;;;;;;;5069936;28;20025;-61
2022/04/27 02:35:06;;;;;;;0.00;0.00;;;;;;;;;;5068746;28;20020;-63
2022/04/27 02:37:31;;;;;;;0.65;0.65;;;;;;;;;;5069229;28;20022;-63
2022/04/27 02:39:57;;;;;;;0.10;0.10;;;;;;;;;;5068947;28;20024;-63
2022/04/27 02:42:23;;;;;;;0.00;0.00;;;;;;;;;;5068610;28;20112;-63
2022/04/27 02:44:48;;;;;;;0.10;0.10;;;;;;;;;;5069190;28;20043;-63
2022/04/27 02:47:14;;;;;;;1.50;1.40;;;;;;;;;;5067983;28;20035;-63
2022/04/27 02:52:23;;;;;;;0.63;0.63;;;;;;;;;;5065633;28;20648;-63
2022/04/27 02:54:48;;;;;;;0.00;0.00;;;;;;;;;;5069186;28;20024;-62
2022/04/27 02:57:14;;;;;;;0.00;0.00;;;;;;;;;;5068328;28;20040;-63
2022/04/27 02:59:41;;;;;;;0.00;0.00;;;;;;;;;;5068844;28;20032;-63
2022/04/27 03:02:06;;;;;;;4.60;4.38;;;;;;;;;;5067591;28;20008;-63
2022/04/27 03:04:31;;;;;;;0.00;0.00;;;;;;;;;;5068172;28;20446;-63
2022/04/27 03:06:57;;;;;;;3.13;0.88;;;;;;;;;;5068627;28;20077;-62
2022/04/27 03:09:23;;;;;;;0.22;0.22;;;;;;;;;;5068951;28;20013;-63
2022/04/27 03:11:48;;;;;;;1.38;1.27;;;;;;;;;;5068274;28;20017;-63
2022/04/27 03:14:13;;;;;;;1.92;1.90;;;;;;;;;;5067862;28;20031;-63
2022/04/27 03:16:39;;;;;;;0.17;0.15;;;;;;;;;;5069083;28;20017;-62
2022/04/27 03:19:04;;;;;;;0.25;0.25;;;;;;;;;;5068245;28;20020;-62
2022/04/27 03:21:31;;;;;;;4.50;2.90;;;;;;;;;;5066761;28;20099;-62
2022/04/27 03:24:12;;;;;;;5.45;2.22;;;;;;;;;;5067390;28;20034;-62
2022/04/27 03:26:43;;;;;;;0.32;0.32;;;;;;;;;;5067018;28;20031;-62
2022/04/27 03:29:08;;;;;;;1.20;1.20;;;;;;;;;;5065906;28;20048;-62
2022/04/27 03:31:33;;;;;;;0.00;0.00;;;;;;;;;;5068225;28;20090;-62
2022/04/27 03:33:59;;;;;;;0.30;0.30;;;;;;;;;;5067546;28;20024;-62
2022/04/27 03:36:24;;;;;;;1.85;0.90;;;;;;;;;;5068092;28;20376;-62
2022/04/27 03:38:50;;;;;;;0.70;0.70;;;;;;;;;;5068300;28;20028;-61
2022/04/27 03:41:19;;;;;;;2.40;1.88;;;;;;;;;;5067790;28;20028;-62
2022/04/27 03:43:44;;;;;;;0.00;0.00;;;;;;;;;;5068113;28;20020;-61
2022/04/27 03:46:09;;;;;;;1.73;1.63;;;;;;;;;;5067697;28;20039;-62
2022/04/27 03:48:35;;;;;;;3.13;2.83;;;;;;;;;;5066634;28;20121;-61
2022/04/27 03:51:00;;;;;;;4.93;0.43;;;;;;;;;;5067469;28;20048;-62
2022/04/27 03:53:25;;;;;;;1.80;1.75;;;;;;;;;;5066164;28;20077;-62
2022/04/27 03:55:50;;;;;;;0.32;0.32;;;;;;;;;;5067919;28;20129;-62
2022/04/27 03:58:16;;;;;;;2.17;1.95;;;;;;;;;;5066900;28;20082;-61
2022/04/27 04:00:41;;;;;;;1.17;0.93;;;;;;;;;;5067310;28;20033;-62
2022/04/27 04:03:06;;;;;;;1.08;0.30;;;;;;;;;;5066922;28;20027;-62
2022/04/27 04:05:31;;;;;;;0.47;0.47;;;;;;;;;;5067698;28;20527;-62
2022/04/27 04:07:57;;;;;;;1.77;0.60;;;;;;;;;;5068779;28;20028;-61
2022/04/27 04:10:22;;;;;;;0.05;0.05;;;;;;;;;;5067103;28;20592;-61
2022/04/27 04:12:48;;;;;;;3.20;1.90;;;;;;;;;;5067539;28;20020;-61
2022/04/27 04:15:13;;;;;;;1.25;1.25;;;;;;;;;;5068867;28;20024;-61
2022/04/27 04:17:44;;;;;;;0.20;0.20;;;;;;;;;;5070019;28;20024;-62
2022/04/27 04:20:10;;;;;;;0.00;0.00;;;;;;;;;;5070872;28;20598;-62
2022/04/27 04:22:35;;;;;;;0.70;0.70;;;;;;;;;;5070930;28;20020;-61
2022/04/27 04:30:29;;;;;;;1.73;1.10;;;;;;;;;;5071062;28;20397;-61
2022/04/27 04:32:54;;;;;;;0.00;0.00;;;;;;;;;;5071089;28;20032;-62
2022/04/27 04:35:19;;;;;;;3.03;1.33;;;;;;;;;;5070486;28;20036;-61
2022/04/27 04:37:44;;;;;;;0.20;0.20;;;;;;;;;;5071083;28;20024;-60
2022/04/27 04:40:10;;;;;;;0.00;0.00;;;;;;;;;;5070388;28;20058;-61
2022/04/27 04:42:35;;;;;;;0.00;0.00;;;;;;;;;;5070730;28;20095;-60
2022/04/27 04:45:01;;;;;;;0.00;0.00;;;;;;;;;;5069037;28;20021;-61
2022/04/27 04:47:26;;;;;;;0.00;0.00;;;;;;;;;;5069021;28;20571;-61
2022/04/27 04:49:52;;;;;;;0.00;0.00;;;;;;;;;;5071120;28;20028;-61
2022/04/27 04:52:17;;;;;;;0.45;0.45;;;;;;;;;;5070260;28;20029;-61
2022/04/27 04:54:42;;;;;;;0.00;0.00;;;;;;;;;;5069511;28;20431;-61
2022/04/27 04:57:07;;;;;;;13.35;12.73;;;;;;;;;;5067296;28;20106;-62
2022/04/27 04:59:32;;;;;;;0.22;0.22;;;;;;;;;;5069578;28;20028;-61
2022/04/27 05:01:58;;;;;;;4.22;0.68;;;;;;;;;;5069329;28;20020;-62
2022/04/27 05:04:23;;;;;;;0.00;0.00;;;;;;;;;;5069878;28;20685;-62
2022/04/27 05:06:48;;;;;;;0.00;0.00;;;;;;;;;;5070426;28;20032;-62
2022/04/27 05:09:13;;;;;;;2.40;0.38;;;;;;;;;;5069341;28;20035;-62
2022/04/27 05:11:38;;;;;;;0.28;0.28;;;;;;;;;;5069753;28;20017;-62
2022/04/27 05:14:04;;;;;;;0.52;0.52;;;;;;;;;;5070990;28;20039;-62
2022/04/27 05:16:31;;;;;;;0.88;0.40;;;;;;;;;;5068106;28;20107;-62
2022/04/27 05:18:56;;;;;;;0.10;0.10;;;;;;;;;;5070166;28;20056;-62
2022/04/27 05:21:21;;;;;;;0.00;0.00;;;;;;;;;;5070241;28;20496;-63
2022/04/27 05:23:46;;;;;;;3.10;1.88;;;;;;;;;;5069265;28;20021;-62
2022/04/27 05:26:12;;;;;;;0.40;0.40;;;;;;;;;;5067676;28;20047;-62
2022/04/27 05:31:58;;;;;;;0.55;0.55;;;;;;;;;;5006733;28;20026;-62
2022/04/27 05:34:29;;;;;;;0.75;0.75;;;;;;;;;;5064195;28;20054;-62
2022/04/27 05:36:55;;;;;;;1.48;1.23;;;;;;;;;;5069188;28;20020;-62
2022/04/27 05:39:21;;;;;;;0.98;0.98;;;;;;;;;;5068599;28;20028;-62
2022/04/27 05:41:47;;;;;;;0.00;0.00;;;;;;;;;;5069087;28;20044;-62
2022/04/27 05:44:12;;;;;;;0.77;0.77;;;;;;;;;;5066210;28;20111;-62
2022/04/27 05:46:38;;;;;;;0.52;0.52;;;;;;;;;;5069867;28;20107;-62
2022/04/27 05:49:03;;;;;;;1.10;1.10;;;;;;;;;;5068764;28;20473;-62
2022/04/27 05:51:29;;;;;;;1.98;1.70;;;;;;;;;;5069493;28;20036;-62
2022/04/27 05:53:54;;;;;;;1.35;0.82;;;;;;;;;;5068672;28;20032;-58
2022/04/27 05:56:19;;;;;;;3.58;3.33;;;;;;;;;;5066798;28;20024;-59
2022/04/27 05:58:45;;;;;;;0.65;0.45;;;;;;;;;;5069203;28;20416;-58
2022/04/27 06:01:11;;;;;;;2.08;1.98;;;;;;;;;;5067839;28;20476;-59
2022/04/27 06:03:36;;;;;;;0.00;0.00;;;;;;;;;;5069978;28;20028;-58
2022/04/27 06:06:02;;;;;;;0.00;0.00;;;;;;;;;;5069199;28;20066;-58
2022/04/27 06:08:27;;;;;;;0.00;0.00;;;;;;;;;;5067892;28;20103;-59
2022/04/27 06:10:52;;;;;;;0.57;0.57;;;;;;;;;;5068632;28;20710;-59
2022/04/27 06:13:18;;;;;;;1.95;0.65;;;;;;;;;;5066593;28;20390;-59
2022/04/27 06:15:43;;;;;;;0.77;0.73;;;;;;;;;;5069314;28;20032;-59
2022/04/27 06:18:09;;;;;;;2.47;2.38;;;;;;;;;;5069487;28;20024;-59
2022/04/27 06:20:34;;;;;;;0.00;0.00;;;;;;;;;;5068189;28;20040;-59
2022/04/27 06:22:59;;;;;;;0.30;0.30;;;;;;;;;;5067402;28;20115;-59
2022/04/27 06:25:27;;;;;;;3.13;0.63;;;;;;;;;;5068258;28;20111;-58
2022/04/27 06:27:52;;;;;;;5.75;4.00;;;;;;;;;;5066158;28;20090;-59
2022/04/27 06:30:18;;;;;;;2.63;2.53;;;;;;;;;;5067363;28;20024;-59
2022/04/27 06:32:43;;;;;;;6.43;5.50;;;;;;;;;;5069634;28;20496;-58
2022/04/27 06:35:12;;;;;;;0.00;0.00;;;;;;;;;;5067950;28;20024;-59
2022/04/27 06:37:38;;;;;;;0.00;0.00;;;;;;;;;;5047444;28;20066;-59
2022/04/27 06:40:04;;;;;;;0.77;0.77;;;;;;;;;;5068188;28;20096;-59
2022/04/27 06:42:30;;;;;;;1.45;1.45;;;;;;;;;;5066786;28;20024;-59
2022/04/27 06:44:55;;;;;;;0.10;0.10;;;;;;;;;;5068547;28;20695;-59
2022/04/27 06:47:20;;;;;;;0.20;0.20;;;;;;;;;;5067650;28;20017;-59
2022/04/27 06:49:45;;;;;;;4.93;3.85;;;;;;;;;;5068181;28;20027;-59
2022/04/27 06:52:10;;;;;;;5.15;4.38;;;;;;;;;;5067371;28;20023;-58
2022/04/27 06:54:36;;;;;;;1.67;1.58;;;;;;;;;;5067813;28;20104;-58
2022/04/27 06:57:01;;;;;;;0.10;0.10;;;;;;;;;;5066710;28;20090;-59
2022/04/27 06:59:26;;;;;;;3.67;3.38;;;;;;;;;;5067127;28;20087;-57
2022/04/27 07:01:53;;;;;;;3.60;2.83;;;;;;;;;;5066437;28;20103;-58
2022/04/27 07:04:19;;;;;;;7.50;5.93;;;;;;;;;;5067474;28;20025;-59
2022/04/27 07:06:44;;;;;;;3.30;3.13;;;;;;;;;;5069289;28;20028;-59
2022/04/27 07:09:11;;;;;;;0.85;0.85;;;;;;;;;;5067694;28;20394;-60
2022/04/27 07:11:36;;;;;;;1.45;0.85;;;;;;;;;;5066989;28;20024;-59
2022/04/27 07:14:01;;;;;;;1.70;1.58;;;;;;;;;;5068398;28;20031;-59
2022/04/27 07:16:27;;;;;;;1.38;1.17;;;;;;;;;;5043990;28;20461;-60
2022/04/27 07:18:53;;;;;;;3.80;3.50;;;;;;;;;;5067904;28;20040;-60
2022/04/27 07:21:19;;;;;;;0.00;0.00;;;;;;;;;;5067610;28;20044;-60
2022/04/27 07:23:44;;;;;;;1.33;1.33;;;;;;;;;;5067822;28;20048;-60
2022/04/27 07:26:09;;;;;;;0.00;0.00;;;;;;;;;;5050798;28;20385;-60
2022/04/27 07:28:36;;;;;;;0.00;0.00;;;;;;;;;;5067506;28;20497;-59
2022/04/27 07:31:02;;;;;;;0.52;0.52;;;;;;;;;;5067318;28;20021;-59
2022/04/27 07:33:27;;;;;;;4.13;3.83;;;;;;;;;;5067738;28;20369;-59
2022/04/27 07:35:52;;;;;;;3.53;3.22;;;;;;;;;;5064638;28;20062;-59
2022/04/27 07:38:17;;;;;;;1.70;1.60;;;;;;;;;;5065485;28;20703;-58
2022/04/27 07:40:42;;;;;;;2.08;1.90;;;;;;;;;;5064876;28;20108;-59
2022/04/27 07:43:08;;;;;;;0.20;0.20;;;;;;;;;;5062116;28;20025;-59
2022/04/27 07:45:33;;;;;;;1.88;1.77;;;;;;;;;;5064161;28;20032;-60
2022/04/27 07:47:58;;;;;;;4.55;4.00;;;;;;;;;;5062386;28;20013;-59
2022/04/27 07:50:23;;;;;;;4.90;4.55;;;;;;;;;;5068363;28;20029;-59
2022/04/27 07:52:49;;;;;;;3.88;2.22;;;;;;;;;;5069962;28;20029;-60
2022/04/27 07:55:14;;;;;;;7.10;5.18;;;;;;;;;;5068004;28;20063;-59
2022/04/27 07:57:40;;;;;;;6.90;6.18;;;;;;;;;;5070470;28;20032;-57
2022/04/27 08:00:14;;;;;;;0.90;0.90;;;;;;;;;;5070332;28;20035;-58
2022/04/27 08:02:40;;;;;;;0.00;0.00;;;;;;;;;;5070126;28;20013;-58
2022/04/27 08:05:06;;;;;;;1.52;0.75;;;;;;;;;;5070751;28;20024;-58
2022/04/27 08:07:38;;;;;;;4.32;3.55;;;;;;;;;;5068833;28;20086;-59
2022/04/27 08:10:10;;;;;;;2.88;2.78;;;;;;;;;;5069679;28;20055;-59
2022/04/27 08:12:35;;;;;;;1.48;1.40;;;;;;;;;;5070096;28;20473;-59
2022/04/27 08:15:01;;;;;;;0.00;0.00;;;;;;;;;;5070285;28;20025;-59
2022/04/27 08:17:26;;;;;;;0.00;0.00;;;;;;;;;;5068522;28;20043;-58
2022/04/27 08:21:13;;;;;;;0.75;0.75;;;;;;;;;;5070374;28;20493;-59
2022/04/27 08:22:36;;;;;;;1.50;0.70;;;;;;;;;;5070230;28;20028;-59
2022/04/27 08:25:02;;;;;;;2.47;2.38;;;;;;;;;;5070357;28;20029;-59
2022/04/27 08:27:27;;;;;;;2.70;2.55;;;;;;;;;;5069607;28;20055;-59
2022/04/27 08:29:52;;;;;;;0.40;0.20;;;;;;;;;;5070346;28;20032;-59
2022/04/27 08:32:17;;;;;;;4.65;3.15;;;;;;;;;;5069159;28;20091;-59
2022/04/27 08:34:42;;;;;;;0.00;0.00;;;;;;;;;;5070366;28;20086;-59
2022/04/27 08:37:08;;;;;;;6.05;5.47;;;;;;;;;;5069516;28;20056;-59
2022/04/27 08:39:33;;;;;;;5.25;3.30;;;;;;;;;;5069671;28;20033;-59
2022/04/27 08:41:58;;;;;;;2.95;2.15;;;;;;;;;;5070151;28;20032;-59
2022/04/27 08:44:23;;;;;;;0.68;0.68;;;;;;;;;;5070553;28;20029;-58
2022/04/27 08:46:49;;;;;;;0.70;0.70;;;;;;;;;;5069872;28;20099;-59
2022/04/27 08:49:15;;;;;;;3.17;3.00;;;;;;;;;;5070103;28;20036;-58
2022/04/27 08:51:40;;;;;;;5.47;1.60;;;;;;;;;;5070726;28;20031;-59
2022/04/27 08:54:05;;;;;;;0.85;0.68;;;;;;;;;;5069355;28;20020;-58
2022/04/27 08:56:32;;;;;;;3.03;2.72;;;;;;;;;;5070277;28;20028;-60
2022/04/27 08:58:58;;;;;;;0.03;0.03;;;;;;;;;;5070730;28;20514;-59
2022/04/27 09:01:24;;;;;;;4.82;4.20;;;;;;;;;;5068784;28;20024;-59
2022/04/27 09:03:50;;;;;;;0.00;0.00;;;;;;;;;;5070998;28;20024;-59
2022/04/27 09:06:17;;;;;;;2.83;2.63;;;;;;;;;;5069142;28;20024;-59
2022/04/27 09:08:50;;;;;;;1.63;1.63;;;;;;;;;;5071131;28;20044;-59
2022/04/27 09:11:18;;;;;;;1.08;1.08;;;;;;;;;;5070195;28;20033;-59
2022/04/27 09:13:50;;;;;;;6.35;5.20;;;;;;;;;;5070557;28;20115;-59
2022/04/27 09:16:18;;;;;;;4.70;2.40;;;;;;;;;;5068338;28;20419;-59
2022/04/27 09:21:31;;;;;;;0.50;0.47;;;;;;;;;;5069880;28;20035;-59
2022/04/27 09:24:03;;;;;;;0.10;0.10;;;;;;;;;;5070062;28;20012;-59
2022/04/27 09:26:31;;;;;;;0.00;0.00;;;;;;;;;;5070066;28;20074;-58
2022/04/27 09:28:57;;;;;;;0.00;0.00;;;;;;;;;;5070104;28;20119;-58
2022/04/27 09:31:26;;;;;;;0.35;0.35;;;;;;;;;;5069563;28;20504;-59
2022/04/27 09:33:52;;;;;;;;;;;;;;;;;;5070704;28;20520;-59
2022/04/27 09:36:18;;;;;;;0.28;0.28;;;;;;;;;;5068600;28;20373;-59
2022/04/27 09:38:43;;;;;;;0.00;0.00;;;;;;;;;;5069721;28;20040;-59
2022/04/27 09:41:09;;;;;;;3.85;3.28;;;;;;;;;;5070008;28;20024;-58
2022/04/27 09:43:42;;;;;;;1.60;1.52;;;;;;;;;;5069423;28;20029;-59
2022/04/27 09:46:15;;;;;;;0.52;0.52;;;;;;;;;;5067974;28;20033;-58
2022/04/27 09:48:40;;;;;;;0.00;0.00;;;;;;;;;;5067697;28;20085;-59
2022/04/27 09:51:11;;;;;;;0.30;0.30;;;;;;;;;;5069795;28;20016;-58
2022/04/27 09:53:37;;;;;;;0.20;0.20;;;;;;;;;;5069167;28;20044;-58
2022/04/27 09:56:03;;;;;;;3.40;3.20;;;;;;;;;;5069607;28;20386;-58
2022/04/27 09:58:29;;;;;;;3.67;3.38;;;;;;;;;;5069337;28;20037;-60
2022/04/27 10:00:56;;;;;;;1.77;1.65;;;;;;;;;;5069479;28;20059;-60
2022/04/27 10:03:22;;;;;;;0.00;0.00;;;;;;;;;;5068423;28;20572;-61
2022/04/27 10:05:47;;;;;;;3.53;3.25;;;;;;;;;;5069273;28;20025;-62
2022/04/27 10:08:13;;;;;;;1.75;1.42;;;;;;;;;;5068907;28;20062;-62
2022/04/27 10:10:44;;;;;;;1.92;1.13;;;;;;;;;;5068369;28;20428;-61
2022/04/27 10:13:11;;;;;;;0.00;0.00;;;;;;;;;;5067086;28;20732;-61
2022/04/27 10:15:36;;;;;;;0.00;0.00;;;;;;;;;;5068079;28;20385;-64
2022/04/27 10:18:02;;;;;;;0.32;0.32;;;;;;;;;;5069076;28;20033;-61
2022/04/27 10:20:28;;;;;;;6.38;3.45;;;;;;;;;;5069404;28;20043;-60
2022/04/27 10:23:13;;;;;;;8.23;3.67;;;;;;;;;;5067823;28;20136;-60
2022/04/27 10:25:39;;;;;;;3.00;2.22;;;;;;;;;;5068683;28;20107;-60
2022/04/27 10:28:22;;;;;;;2.63;2.53;;;;;;;;;;5068773;28;20549;-59
2022/04/27 10:30:48;;;;;;;0.43;0.43;;;;;;;;;;5067645;28;20017;-59
2022/04/27 10:33:33;;;;;;;0.60;0.60;;;;;;;;;;5068064;28;20035;-59
2022/04/27 10:36:17;;;;;;;0.85;0.85;;;;;;;;;;5068004;28;20027;-60
2022/04/27 10:38:42;;;;;;;1.42;1.33;;;;;;;;;;5066309;28;20485;-60
2022/04/27 10:41:07;;;;;;;3.40;1.45;;;;;;;;;;5067891;28;20059;-60
2022/04/27 10:43:42;;;;;;;0.20;0.20;;;;;;;;;;5067196;28;20051;-60
2022/04/27 10:46:26;;;;;;;0.00;0.00;;;;;;;;;;5065919;28;20032;-61
2022/04/27 10:48:51;;;;;;;0.65;0.65;;;;;;;;;;5067148;28;20481;-59
2022/04/27 10:51:16;;;;;;;0.03;0.03;;;;;;;;;;5067212;28;20039;-59
2022/04/27 10:53:43;;;;;;;0.63;0.63;;;;;;;;;;5049500;28;20024;-58
2022/04/27 10:56:25;;;;;;;4.18;0.38;;;;;;;;;;5067650;28;20119;-59
2022/04/27 10:58:50;;;;;;;0.08;0.08;;;;;;;;;;5066797;28;20119;-59
2022/04/27 11:01:18;;;;;;;0.00;0.00;;;;;;;;;;5065954;28;20107;-60
2022/04/27 11:03:45;;;;;;;2.08;1.52;;;;;;;;;;5066196;28;20012;-60
2022/04/27 11:06:12;;;;;;;2.00;1.83;;;;;;;;;;5066911;28;20028;-59
2022/04/27 11:08:37;;;;;;;0.00;0.00;;;;;;;;;;5066906;28;20085;-60
2022/04/27 11:11:07;;;;;;;1.10;1.10;;;;;;;;;;5067459;28;20067;-59
2022/04/27 11:13:32;;;;;;;;;;;;;;;;;;5066368;28;20286;-59
2022/04/27 11:16:11;;;;;;;0.00;0.00;;;;;;;;;;5067240;28;19909;-60
2022/04/27 11:18:53;;;;;;;1.40;1.40;;;;;;;;;;5065890;28;20024;-59
2022/04/27 11:21:18;;;;;;;0.45;0.40;;;;;;;;;;5066438;28;20480;-60
2022/04/27 11:23:44;;;;;;;0.17;0.17;;;;;;;;;;5066701;28;20017;-60
2022/04/27 11:26:09;;;;;;;0.05;0.05;;;;;;;;;;5066549;28;20017;-59
2022/04/27 11:28:35;;;;;;;1.58;1.23;;;;;;;;;;5066433;28;20044;-60
2022/04/27 11:31:01;;;;;;;4.43;3.22;;;;;;;;;;5065879;28;20028;-61
2022/04/27 11:33:27;;;;;;;1.77;1.67;;;;;;;;;;5065107;28;20043;-60
2022/04/27 11:35:52;;;;;;;1.83;1.27;;;;;;;;;;5066158;28;20375;-61
2022/04/27 11:38:21;;;;;;;1.08;0.57;;;;;;;;;;5066384;28;20027;-60
2022/04/27 11:40:48;;;;;;;0.00;0.00;;;;;;;;;;5067341;28;20177;-60
2022/04/27 11:43:21;;;;;;;1.67;1.58;;;;;;;;;;5065095;28;20012;-60
2022/04/27 11:45:49;;;;;;;8.02;7.40;;;;;;;;;;5064941;28;20043;-60
2022/04/27 11:48:14;;;;;;;3.20;1.65;;;;;;;;;;5065641;28;20489;-60
2022/04/27 11:50:42;;;;;;;1.97;1.80;;;;;;;;;;5066958;28;20047;-60
2022/04/27 11:53:08;;;;;;;5.07;4.38;;;;;;;;;;5066057;28;20757;-60
2022/04/27 11:55:35;;;;;;;0.82;0.82;;;;;;;;;;5066160;28;20051;-61
2022/04/27 11:58:01;;;;;;;0.00;0.00;;;;;;;;;;5065468;28;20036;-60
2022/04/27 12:00:27;;;;;;;0.00;0.00;;;;;;;;;;5064758;28;20499;-60
2022/04/27 12:02:53;;;;;;;0.00;0.00;;;;;;;;;;5066401;28;20056;-61
2022/04/27 12:05:27;;;;;;;0.30;0.30;;;;;;;;;;5066494;28;20018;-60
2022/04/27 12:07:52;;;;;;;0.00;0.00;;;;;;;;;;5063551;28;20158;-60
2022/04/27 12:10:18;;;;;;;1.35;0.32;;;;;;;;;;5067450;28;20612;-60
2022/04/27 12:12:43;;;;;;;0.52;0.52;;;;;;;;;;5067838;28;20477;-60
2022/04/27 12:15:08;;;;;;;0.65;0.65;;;;;;;;;;5066141;28;20028;-60
2022/04/27 12:17:52;;;;;;;0.38;0.38;;;;;;;;;;5067344;28;20190;-60
2022/04/27 12:20:23;;;;;;;4.10;1.67;;;;;;;;;;5067355;28;20465;-60
2022/04/27 12:22:56;;;;;;;0.20;0.20;;;;;;;;;;5067636;28;20028;-61
2022/04/27 12:25:30;;;;;;;1.75;1.30;;;;;;;;;;5066807;28;20024;-62
2022/04/27 12:27:55;;;;;;;0.57;0.57;;;;;;;;;;5064956;28;20056;-63
2022/04/27 12:30:21;;;;;;;0.00;0.00;;;;;;;;;;5066041;28;20021;-63
2022/04/27 12:32:46;;;;;;;1.08;0.60;;;;;;;;;;5066967;28;20350;-63
2022/04/27 12:37:55;;;;;;;0.10;0.10;;;;;;;;;;5070161;28;20393;-62
2022/04/27 12:40:21;;;;;;;0.00;0.00;;;;;;;;;;5068617;28;20029;-63
2022/04/27 12:43:05;;;;;;;0.63;0.63;;;;;;;;;;5070736;28;20579;-64
2022/04/27 12:45:31;;;;;;;1.10;0.80;;;;;;;;;;5068699;28;20056;-62
2022/04/27 12:47:56;;;;;;;0.75;0.75;;;;;;;;;;5069641;28;20043;-63
2022/04/27 12:50:21;;;;;;;0.00;0.00;;;;;;;;;;5070425;28;20477;-61
2022/04/27 12:52:47;;;;;;;0.00;0.00;;;;;;;;;;5069682;28;20422;-63
2022/04/27 12:55:13;;;;;;;0.10;0.10;;;;;;;;;;5070547;28;20013;-62
2022/04/27 12:57:46;;;;;;;0.00;0.00;;;;;;;;;;5067593;28;20056;-62
2022/04/27 13:00:12;;;;;;;0.52;0.52;;;;;;;;;;5070191;28;20335;-62
2022/04/27 13:02:37;;;;;;;0.00;0.00;;;;;;;;;;5068488;28;20028;-62
2022/04/27 13:05:03;;;;;;;0.63;0.63;;;;;;;;;;5069991;28;20025;-62
2022/04/27 13:07:29;;;;;;;2.08;1.95;;;;;;;;;;5068803;28;20021;-62
2022/04/27 13:12:38;;;;;;;1.27;1.20;;;;;;;;;;5070147;28;20035;-63
2022/04/27 13:15:04;;;;;;;3.72;2.33;;;;;;;;;;5070050;28;20661;-63
2022/04/27 13:17:29;;;;;;;1.40;0.85;;;;;;;;;;5068183;28;20033;-63
2022/04/27 13:19:54;;;;;;;0.17;0.17;;;;;;;;;;5069658;28;20064;-63
2022/04/27 13:22:20;;;;;;;0.32;0.30;;;;;;;;;;5069722;28;20492;-63
2022/04/27 13:24:45;;;;;;;0.00;0.00;;;;;;;;;;5066830;28;20070;-64
2022/04/27 13:27:10;;;;;;;0.00;0.00;;;;;;;;;;5068346;28;20044;-64
2022/04/27 13:29:36;;;;;;;0.00;0.00;;;;;;;;;;5068298;28;20024;-65
2022/04/27 13:32:01;;;;;;;0.00;0.00;;;;;;;;;;5068528;28;20017;-64
2022/04/27 13:34:27;;;;;;;0.70;0.70;;;;;;;;;;5069362;28;20475;-65
2022/04/27 13:36:52;;;;;;;0.10;0.10;;;;;;;;;;5069207;28;20020;-65
2022/04/27 13:39:17;;;;;;;0.52;0.52;;;;;;;;;;5067821;28;20040;-64
2022/04/27 13:41:43;;;;;;;0.30;0.30;;;;;;;;;;5069619;28;20013;-64
2022/04/27 13:44:08;;;;;;;0.00;0.00;;;;;;;;;;5068952;28;20035;-64
2022/04/27 13:46:33;;;;;;;0.00;0.00;;;;;;;;;;5067637;28;20021;-64
2022/04/27 13:48:58;;;;;;;0.00;0.00;;;;;;;;;;5067703;28;20552;-64
2022/04/27 13:51:24;;;;;;;0.00;0.00;;;;;;;;;;5066828;28;20032;-64
2022/04/27 13:53:49;;;;;;;0.10;0.10;;;;;;;;;;5068665;28;20020;-64
2022/04/27 13:56:14;;;;;;;0.00;0.00;;;;;;;;;;5069295;28;20024;-64
2022/04/27 13:58:40;;;;;;;0.63;0.63;;;;;;;;;;5066969;28;20127;-64
2022/04/27 14:01:05;;;;;;;1.30;1.17;;;;;;;;;;5066378;28;20020;-64
2022/04/27 14:03:32;;;;;;;0.00;0.00;;;;;;;;;;5044918;28;20056;-63
2022/04/27 14:05:57;;;;;;;0.00;0.00;;;;;;;;;;5046354;28;20017;-63
2022/04/27 14:08:22;;;;;;;0.45;0.45;;;;;;;;;;5046230;28;20028;-63
2022/04/27 14:10:48;;;;;;;0.00;0.00;;;;;;;;;;5046482;28;20048;-65
2022/04/27 14:13:14;;;;;;;0.00;0.00;;;;;;;;;;5044214;28;20017;-64
2022/04/27 14:15:40;;;;;;;0.05;0.05;;;;;;;;;;5044485;28;20035;-64
2022/04/27 14:18:14;;;;;;;0.00;0.00;;;;;;;;;;5043075;28;20103;-63
2022/04/27 14:20:42;;;;;;;0.00;0.00;;;;;;;;;;5043879;28;20517;-64
2022/04/27 14:23:09;;;;;;;0.00;0.00;;;;;;;;;;5043013;28;20039;-64
2022/04/27 14:25:35;;;;;;;0.00;0.00;;;;;;;;;;5044089;28;20029;-64
2022/04/27 14:28:00;;;;;;;0.00;0.00;;;;;;;;;;5042990;28;20493;-64
2022/04/27 14:30:26;;;;;;;0.00;0.00;;;;;;;;;;5043975;28;20041;-63
2022/04/27 14:32:51;;;;;;;0.00;0.00;;;;;;;;;;5043483;28;20033;-65
2022/04/27 14:35:17;;;;;;;0.35;0.30;;;;;;;;;;5044133;28;20035;-64
2022/04/27 14:37:42;;;;;;;0.00;0.00;;;;;;;;;;5044384;28;20044;-64
2022/04/27 14:40:08;;;;;;;0.00;0.00;;;;;;;;;;5042803;28;20033;-65
2022/04/27 14:42:33;;;;;;;0.00;0.00;;;;;;;;;;5042933;28;20021;-65
2022/04/27 14:44:59;;;;;;;0.00;0.00;;;;;;;;;;5043703;28;20146;-66
2022/04/27 14:47:24;;;;;;;0.05;0.05;;;;;;;;;;5042380;28;20027;-65
2022/04/27 14:49:50;;;;;;;0.00;0.00;;;;;;;;;;5045676;28;20029;-64
2022/04/27 14:52:15;;;;;;;0.00;0.00;;;;;;;;;;5042768;28;20021;-65
2022/04/27 14:54:40;;;;;;;0.20;0.20;;;;;;;;;;5025436;28;20144;-65
2022/04/27 14:57:06;;;;;;;0.00;0.00;;;;;;;;;;5043860;28;20114;-65
2022/04/27 14:59:31;;;;;;;0.00;0.00;;;;;;;;;;5041691;28;20358;-64
2022/04/27 15:01:57;;;;;;;0.45;0.45;;;;;;;;;;5044063;28;20495;-65